createdAt,value
2019-01-11T00:01:24.458Z,8.87
2019-01-11T00:03:52.688Z,10.43
2019-01-11T00:06:20.413Z,10.20
2019-01-11T00:08:48.160Z,14.13
2019-01-11T00:11:16.171Z,15.10
2019-01-11T00:13:45.125Z,15.03
2019-01-11T00:16:13.069Z,13.43
2019-01-11T00:18:40.748Z,13.93
2019-01-11T00:21:08.421Z,13.17
2019-01-11T00:23:36.021Z,11.70
2019-01-11T00:26:03.864Z,11.90
2019-01-11T00:28:31.395Z,11.37
2019-01-11T00:30:59.169Z,12.40
2019-01-11T00:33:26.848Z,13.20
2019-01-11T00:35:54.445Z,10.83
2019-01-11T00:38:22.385Z,12.30
2019-01-11T00:40:50.073Z,12.00
2019-01-11T00:43:17.695Z,14.63
2019-01-11T00:45:48.223Z,12.70
2019-01-11T00:48:16.310Z,11.93
2019-01-11T00:50:43.921Z,12.03
2019-01-11T00:53:13.429Z,15.63
2019-01-11T00:55:41.205Z,14.00
2019-01-11T00:58:09.913Z,14.80
2019-01-11T01:00:37.524Z,12.33
2019-01-11T01:03:05.280Z,11.47
2019-01-11T01:05:33.165Z,11.50
2019-01-11T01:08:01.284Z,10.23
2019-01-11T01:10:29.066Z,14.80
2019-01-11T01:12:57.055Z,11.27
2019-01-11T01:15:24.988Z,8.87
2019-01-11T01:17:52.820Z,9.90
2019-01-11T01:20:21.640Z,9.83
2019-01-11T01:22:50.243Z,11.30
2019-01-11T01:25:18.558Z,10.23
2019-01-11T01:27:46.263Z,11.30
2019-01-11T01:30:15.577Z,13.70
2019-01-11T01:32:43.754Z,9.60
2019-01-11T01:35:11.659Z,11.50
2019-01-11T01:37:39.394Z,10.53
2019-01-11T01:40:08.816Z,9.77
2019-01-11T01:42:36.492Z,11.67
2019-01-11T01:45:07.297Z,10.17
2019-01-11T01:47:34.947Z,10.43
2019-01-11T01:50:03.356Z,12.00
2019-01-11T01:52:31.682Z,11.03
2019-01-11T01:55:01.424Z,11.20
2019-01-11T01:57:29.182Z,11.90
2019-01-11T01:59:56.920Z,9.70
2019-01-11T02:02:24.527Z,9.50
2019-01-11T02:04:52.170Z,11.33
2019-01-11T02:07:19.852Z,10.40
2019-01-11T02:09:47.557Z,11.43
2019-01-11T02:12:15.060Z,9.90
2019-01-11T02:14:42.543Z,9.93
2019-01-11T02:17:10.964Z,10.33
2019-01-11T02:19:38.677Z,9.67
2019-01-11T02:22:06.354Z,8.40
2019-01-11T02:24:34.134Z,12.37
2019-01-11T02:27:01.835Z,9.60
2019-01-11T02:29:29.451Z,11.80
2019-01-11T02:31:57.208Z,12.87
2019-01-11T02:34:24.681Z,12.23
2019-01-11T02:36:52.284Z,11.83
2019-01-11T02:39:19.926Z,11.80
2019-01-11T02:41:47.563Z,10.67
2019-01-11T02:44:15.100Z,10.83
2019-01-11T02:46:42.737Z,11.97
2019-01-11T02:49:10.239Z,12.63
2019-01-11T02:51:38.253Z,12.40
2019-01-11T02:54:06.065Z,14.43
2019-01-11T02:56:33.644Z,13.00
2019-01-11T02:59:02.888Z,13.70
2019-01-11T03:01:30.558Z,14.50
2019-01-11T03:03:58.029Z,14.90
2019-01-11T03:06:25.669Z,17.37
2019-01-11T03:08:53.293Z,13.87
2019-01-11T03:11:20.854Z,14.40
2019-01-11T03:13:48.290Z,16.40
2019-01-11T03:16:15.988Z,16.80
2019-01-11T03:18:43.464Z,15.30
2019-01-11T03:21:11.125Z,15.43
2019-01-11T03:23:38.780Z,14.03
2019-01-11T03:26:06.413Z,13.90
2019-01-11T03:28:37.239Z,13.73
2019-01-11T03:31:14.598Z,15.70
2019-01-11T03:33:42.504Z,15.73
2019-01-11T03:36:10.024Z,13.23
2019-01-11T03:38:37.638Z,13.20
2019-01-11T03:41:05.727Z,11.53
2019-01-11T03:43:33.698Z,12.33
2019-01-11T03:46:01.444Z,10.93
2019-01-11T03:48:29.026Z,10.37
2019-01-11T03:50:56.708Z,11.87
2019-01-11T03:53:24.195Z,10.70
2019-01-11T03:55:51.888Z,11.80
2019-01-11T03:58:19.604Z,9.97
2019-01-11T04:00:47.632Z,14.50
2019-01-11T04:03:15.425Z,9.97
2019-01-11T04:05:43.175Z,12.83
2019-01-11T04:08:10.668Z,14.60
2019-01-11T04:10:38.453Z,10.93
2019-01-11T04:13:06.141Z,11.47
2019-01-11T04:15:34.970Z,10.10
2019-01-11T04:18:22.217Z,9.67
2019-01-11T04:20:50.072Z,11.90
2019-01-11T04:23:17.916Z,13.17
2019-01-11T04:25:47.066Z,12.27
2019-01-11T04:28:15.169Z,11.43
2019-01-11T04:30:42.872Z,10.47
2019-01-11T04:33:10.568Z,11.10
2019-01-11T04:35:38.680Z,11.57
2019-01-11T04:38:06.508Z,12.77
2019-01-11T04:40:34.575Z,14.63
2019-01-11T04:43:02.591Z,14.50
2019-01-11T04:45:30.397Z,13.57
2019-01-11T04:47:58.182Z,13.57
2019-01-11T04:50:26.069Z,13.80
2019-01-11T04:52:53.792Z,16.20
2019-01-11T04:55:21.689Z,17.30
2019-01-11T04:57:49.273Z,17.60
2019-01-11T05:00:22.100Z,19.90
2019-01-11T05:02:54.969Z,15.30
2019-01-11T05:05:22.626Z,18.60
2019-01-11T05:07:50.178Z,20.90
2019-01-11T05:10:19.082Z,18.47
2019-01-11T05:12:46.663Z,19.90
2019-01-11T05:15:14.642Z,18.17
2019-01-11T05:17:42.315Z,17.47
2019-01-11T05:20:16.526Z,17.00
2019-01-11T05:22:41.717Z,17.20
2019-01-11T05:25:09.706Z,19.03
2019-01-11T05:27:37.423Z,19.20
2019-01-11T05:30:08.429Z,19.63
2019-01-11T05:32:36.142Z,20.00
2019-01-11T05:35:04.445Z,23.80
2019-01-11T05:37:32.337Z,19.50
2019-01-11T05:39:59.973Z,16.47
2019-01-11T05:42:27.824Z,16.43
2019-01-11T05:44:55.745Z,17.70
2019-01-11T05:47:23.689Z,18.33
2019-01-11T05:49:51.478Z,17.07
2019-01-11T05:52:19.181Z,18.50
2019-01-11T05:54:46.836Z,18.10
2019-01-11T05:57:14.400Z,16.87
2019-01-11T05:59:41.884Z,16.10
2019-01-11T06:02:09.507Z,18.03
2019-01-11T06:05:11.805Z,17.37
2019-01-11T06:07:50.479Z,16.07
2019-01-11T06:10:18.082Z,20.50
2019-01-11T06:12:45.770Z,14.13
2019-01-11T06:15:13.508Z,17.57
2019-01-11T06:17:41.142Z,15.37
2019-01-11T06:20:12.313Z,16.60
2019-01-11T06:22:39.821Z,17.50
2019-01-11T06:25:07.497Z,17.87
2019-01-11T06:27:35.120Z,15.20
2019-01-11T06:30:03.932Z,17.57
2019-01-11T06:32:31.499Z,19.93
2019-01-11T06:34:58.948Z,17.07
2019-01-11T06:37:26.467Z,18.10
2019-01-11T06:39:54.027Z,16.33
2019-01-11T06:42:25.419Z,19.37
2019-01-11T06:44:53.142Z,18.30
2019-01-11T06:47:21.130Z,17.17
2019-01-11T06:49:49.245Z,16.17
2019-01-11T06:52:17.196Z,16.47
2019-01-11T06:54:45.213Z,17.17
2019-01-11T06:57:12.773Z,16.57
2019-01-11T06:59:40.255Z,16.77
2019-01-11T07:02:07.774Z,17.03
2019-01-11T07:04:35.311Z,19.60
2019-01-11T07:07:03.142Z,18.10
2019-01-11T07:09:30.755Z,19.20
2019-01-11T07:11:58.500Z,17.97
2019-01-11T07:14:26.066Z,16.30
2019-01-11T07:16:53.713Z,20.07
2019-01-11T07:19:21.556Z,23.90
2019-01-11T07:21:49.259Z,16.60
2019-01-11T07:24:16.853Z,20.60
2019-01-11T07:26:44.584Z,17.00
2019-01-11T07:29:12.268Z,18.10
2019-01-11T07:31:41.758Z,23.63
2019-01-11T07:34:09.624Z,19.20
2019-01-11T07:36:40.725Z,25.00
2019-01-11T07:39:28.071Z,41.50
2019-01-11T07:41:55.808Z,16.80
2019-01-11T07:44:24.800Z,15.67
2019-01-11T07:46:52.474Z,17.50
2019-01-11T07:49:28.587Z,25.70
2019-01-11T07:51:56.276Z,20.57
2019-01-11T07:54:24.077Z,40.17
2019-01-11T07:56:52.886Z,23.43
2019-01-11T07:59:21.787Z,20.70
2019-01-11T08:01:49.308Z,18.33
2019-01-11T08:04:16.923Z,15.70
2019-01-11T08:06:44.404Z,17.43
2019-01-11T08:09:12.017Z,16.43
2019-01-11T08:11:39.515Z,19.03
2019-01-11T08:14:07.815Z,17.43
2019-01-11T08:16:35.319Z,22.53
2019-01-11T08:19:02.895Z,23.80
2019-01-11T08:21:30.375Z,16.40
2019-01-11T08:23:58.160Z,15.67
2019-01-11T08:26:25.727Z,17.80
2019-01-11T08:28:53.315Z,18.73
2019-01-11T08:31:20.868Z,15.97
2019-01-11T08:33:53.240Z,18.27
2019-01-11T08:36:20.680Z,16.47
2019-01-11T08:38:48.479Z,14.73
2019-01-11T08:41:15.955Z,18.20
2019-01-11T08:43:43.480Z,25.00
2019-01-11T08:46:10.996Z,15.60
2019-01-11T08:48:38.553Z,17.30
2019-01-11T08:51:06.106Z,20.10
2019-01-11T08:53:33.608Z,16.77
2019-01-11T08:56:08.078Z,16.30
2019-01-11T08:58:30.788Z,15.50
2019-01-11T09:00:58.392Z,17.70
2019-01-11T09:03:25.888Z,16.90
2019-01-11T09:05:53.735Z,19.37
2019-01-11T09:08:21.272Z,18.80
2019-01-11T09:10:49.880Z,17.23
2019-01-11T09:13:17.468Z,18.30
2019-01-11T09:15:44.968Z,15.30
2019-01-11T09:18:13.099Z,19.63
2019-01-11T09:20:41.484Z,17.77
2019-01-11T09:23:09.129Z,21.10
2019-01-11T09:25:36.732Z,20.23
2019-01-11T09:28:04.269Z,15.73
2019-01-11T09:30:32.321Z,21.03
2019-01-11T09:32:59.860Z,17.50
2019-01-11T09:35:27.411Z,18.23
2019-01-11T09:37:54.992Z,18.37
2019-01-11T09:40:22.665Z,15.07
2019-01-11T09:42:50.354Z,16.50
2019-01-11T09:45:17.815Z,16.73
2019-01-11T09:47:45.748Z,18.60
2019-01-11T09:50:13.267Z,15.07
2019-01-11T09:52:53.991Z,20.27
2019-01-11T09:55:21.528Z,20.10
2019-01-11T09:57:48.987Z,19.30
2019-01-11T10:00:19.421Z,17.03
2019-01-11T10:02:56.029Z,16.53
2019-01-11T10:05:23.498Z,15.10
2019-01-11T10:07:51.267Z,17.93
2019-01-11T10:10:19.036Z,24.00
2019-01-11T10:12:46.821Z,20.53
2019-01-11T10:15:16.079Z,22.63
2019-01-11T10:17:43.516Z,18.93
2019-01-11T10:20:11.640Z,25.10
2019-01-11T10:22:39.143Z,17.93
2019-01-11T10:25:07.730Z,17.80
2019-01-11T10:27:35.197Z,18.90
2019-01-11T10:30:04.013Z,19.40
2019-01-11T10:32:31.489Z,24.97
2019-01-11T10:34:59.039Z,20.30
2019-01-11T10:37:26.898Z,19.50
2019-01-11T10:39:54.487Z,18.10
2019-01-11T10:42:22.063Z,18.70
2019-01-11T10:44:49.829Z,19.27
2019-01-11T10:47:17.481Z,23.33
2019-01-11T10:49:45.124Z,17.60
2019-01-11T10:52:12.800Z,16.97
2019-01-11T10:54:41.900Z,19.47
2019-01-11T10:57:09.675Z,19.33
2019-01-11T10:59:37.278Z,23.47
2019-01-11T11:02:04.768Z,22.37
2019-01-11T11:04:32.978Z,19.80
2019-01-11T11:07:01.017Z,24.33
2019-01-11T11:09:28.868Z,23.63
2019-01-11T11:11:56.356Z,18.40
2019-01-11T11:14:23.940Z,22.10
2019-01-11T11:16:51.833Z,22.03
2019-01-11T11:19:19.432Z,17.13
2019-01-11T11:21:47.125Z,20.80
2019-01-11T11:24:15.185Z,21.33
2019-01-11T11:26:42.820Z,19.63
2019-01-11T11:29:10.772Z,22.53
2019-01-11T11:31:38.360Z,22.20
2019-01-11T11:34:05.829Z,22.23
2019-01-11T11:36:33.296Z,18.43
2019-01-11T11:39:00.792Z,15.10
2019-01-11T11:41:28.305Z,20.50
2019-01-11T11:43:55.821Z,20.20
2019-01-11T11:46:24.533Z,19.43
2019-01-11T11:48:53.419Z,17.93
2019-01-11T11:51:20.928Z,19.30
2019-01-11T11:53:48.436Z,26.27
2019-01-11T11:56:27.441Z,19.00
2019-01-11T11:58:54.932Z,19.23
2019-01-11T12:01:22.385Z,18.67
2019-01-11T12:03:50.211Z,19.00
2019-01-11T12:06:17.644Z,18.83
2019-01-11T12:08:45.387Z,18.77
2019-01-11T12:11:13.203Z,17.60
2019-01-11T12:13:40.748Z,22.67
2019-01-11T12:16:08.175Z,19.10
2019-01-11T12:18:35.787Z,22.40
2019-01-11T12:21:03.267Z,24.00
2019-01-11T12:23:31.287Z,21.10
2019-01-11T12:25:58.950Z,19.57
2019-01-11T12:28:26.414Z,19.50
2019-01-11T12:30:53.876Z,19.60
2019-01-11T12:33:21.387Z,20.43
2019-01-11T12:35:48.845Z,20.27
2019-01-11T12:38:16.376Z,19.87
2019-01-11T12:40:43.862Z,18.33
2019-01-11T12:43:11.351Z,22.63
2019-01-11T12:45:38.788Z,19.30
2019-01-11T12:48:06.281Z,20.77
2019-01-11T12:50:33.747Z,21.20
2019-01-11T12:53:01.285Z,20.80
2019-01-11T12:55:28.746Z,21.60
2019-01-11T12:57:56.513Z,19.93
2019-01-11T13:00:24.054Z,23.87
2019-01-11T13:02:51.533Z,18.73
2019-01-11T13:05:20.161Z,16.80
2019-01-11T13:07:51.406Z,19.00
2019-01-11T13:10:19.508Z,18.47
2019-01-11T13:12:47.202Z,19.77
2019-01-11T13:15:20.576Z,21.23
2019-01-11T13:17:49.717Z,20.03
2019-01-11T13:20:28.200Z,22.33
2019-01-11T13:23:06.521Z,23.73
2019-01-11T13:26:17.653Z,18.40
2019-01-11T13:29:18.558Z,19.90
2019-01-11T13:32:25.383Z,21.37
2019-01-11T13:34:53.527Z,22.07
2019-01-11T13:37:21.112Z,21.47
2019-01-11T13:39:48.636Z,19.63
2019-01-11T13:42:16.106Z,17.97
2019-01-11T13:44:43.661Z,21.57
2019-01-11T13:47:11.206Z,24.07
2019-01-11T13:49:38.700Z,19.40
2019-01-11T13:52:08.988Z,18.20
2019-01-11T13:54:36.445Z,18.00
2019-01-11T13:57:18.231Z,19.67
2019-01-11T13:59:45.937Z,23.20
2019-01-11T14:02:13.464Z,19.00
2019-01-11T14:04:41.135Z,16.27
2019-01-11T14:07:08.836Z,17.87
2019-01-11T14:09:36.749Z,19.80
2019-01-11T14:12:04.702Z,19.33
2019-01-11T14:14:32.208Z,18.63
2019-01-11T14:17:00.234Z,19.43
2019-01-11T14:19:28.211Z,22.80
2019-01-11T14:21:56.136Z,23.97
2019-01-11T14:24:24.001Z,19.30
2019-01-11T14:26:52.318Z,18.97
2019-01-11T14:29:20.261Z,19.57
2019-01-11T14:31:48.058Z,23.67
2019-01-11T14:34:15.945Z,20.67
2019-01-11T14:37:05.244Z,19.90
2019-01-11T14:40:05.762Z,18.97
2019-01-11T14:42:39.581Z,22.50
2019-01-11T14:45:11.810Z,22.43
2019-01-11T14:47:39.547Z,18.77
2019-01-11T14:50:10.156Z,22.10
2019-01-11T14:52:37.733Z,20.07
2019-01-11T14:55:07.473Z,21.97
2019-01-11T14:57:35.015Z,22.43
2019-01-11T15:00:03.031Z,17.50
2019-01-11T15:02:30.592Z,24.30
2019-01-11T15:04:58.223Z,20.47
2019-01-11T15:07:26.062Z,20.10
2019-01-11T15:09:54.356Z,23.43
2019-01-11T15:12:22.100Z,18.00
2019-01-11T15:14:49.609Z,23.17
2019-01-11T15:17:17.372Z,22.67
2019-01-11T15:19:48.631Z,22.33
2019-01-11T15:22:16.281Z,18.20
2019-01-11T15:24:45.841Z,21.50
2019-01-11T15:27:14.048Z,19.80
2019-01-11T15:29:42.045Z,20.80
2019-01-11T15:32:09.619Z,25.37
2019-01-11T15:35:42.222Z,24.00
2019-01-11T16:06:14.461Z,22.70
2019-01-11T16:09:59.190Z,24.60
2019-01-11T16:12:47.725Z,22.07
2019-01-11T16:15:44.461Z,28.13
2019-01-11T16:18:29.848Z,18.97
2019-01-11T16:21:06.102Z,19.43
2019-01-11T16:23:40.474Z,27.00
2019-01-11T16:26:35.337Z,17.90
2019-01-11T16:29:27.756Z,24.77
2019-01-11T16:35:47.657Z,21.23
2019-01-11T16:38:24.223Z,14.73
2019-01-11T16:41:35.424Z,18.40
2019-01-11T16:47:15.626Z,17.30
2019-01-11T16:50:18.118Z,17.60
2019-01-11T16:52:52.633Z,14.00
2019-01-11T16:56:39.731Z,20.37
2019-01-11T16:59:20.662Z,18.77
2019-01-11T17:01:49.960Z,15.37
2019-01-11T17:04:17.750Z,18.97
2019-01-11T17:06:46.626Z,13.83
2019-01-11T17:09:14.578Z,17.10
2019-01-11T17:11:43.026Z,17.97
2019-01-11T17:14:23.019Z,21.30
2019-01-11T17:16:56.063Z,18.13
2019-01-11T17:19:33.934Z,23.53
2019-01-11T17:22:12.897Z,22.20
2019-01-11T17:25:02.701Z,22.23
2019-01-11T17:27:42.036Z,20.37
2019-01-11T17:30:13.708Z,20.90
2019-01-11T17:32:41.953Z,23.40
2019-01-11T17:35:10.112Z,26.30
2019-01-11T17:38:06.767Z,21.80
2019-01-11T17:40:52.794Z,27.77
2019-01-11T17:43:30.939Z,24.53
2019-01-11T17:46:04.797Z,21.30
2019-01-11T17:48:46.271Z,25.47
2019-01-11T17:51:13.962Z,24.97
2019-01-11T17:53:45.186Z,26.40
2019-01-11T17:56:12.860Z,25.60
2019-01-11T17:58:40.479Z,27.13
2019-01-11T18:04:50.964Z,22.60
2019-01-11T18:07:19.775Z,28.60
2019-01-11T18:10:06.913Z,23.30
2019-01-11T18:12:46.401Z,25.03
2019-01-11T18:15:20.020Z,21.40
2019-01-11T18:18:16.819Z,21.30
2019-01-11T18:20:49.047Z,21.10
2019-01-11T18:23:22.749Z,22.83
2019-01-11T18:26:02.681Z,22.10
2019-01-11T18:28:39.735Z,22.50
2019-01-11T18:31:20.365Z,24.60
2019-01-11T18:34:02.229Z,23.63
2019-01-11T18:36:52.500Z,26.60
2019-01-11T18:39:27.618Z,18.97
2019-01-11T18:42:04.884Z,20.03
2019-01-11T18:47:24.240Z,18.37
2019-01-11T18:49:55.064Z,22.97
2019-01-11T18:52:23.974Z,20.70
2019-01-11T18:54:54.002Z,19.10
2019-01-11T18:57:24.382Z,18.93
2019-01-11T18:59:59.142Z,25.10
2019-01-11T19:02:30.927Z,18.80
2019-01-11T19:04:59.150Z,20.30
2019-01-11T19:07:29.136Z,16.27
2019-01-11T19:09:57.637Z,25.27
2019-01-11T19:12:25.789Z,19.57
2019-01-11T19:14:55.172Z,18.77
2019-01-11T19:17:31.757Z,19.13
2019-01-11T19:20:02.940Z,18.47
2019-01-11T19:22:30.662Z,17.60
2019-01-11T19:25:04.227Z,21.13
2019-01-11T19:27:32.138Z,20.90
2019-01-11T19:30:02.459Z,18.00
2019-01-11T19:32:30.146Z,17.40
2019-01-11T19:34:59.724Z,24.37
2019-01-11T19:37:27.241Z,19.07
2019-01-11T19:39:54.887Z,19.80
2019-01-11T19:42:22.471Z,17.40
2019-01-11T19:44:51.468Z,22.63
2019-01-11T19:47:23.516Z,18.73
2019-01-11T19:49:53.382Z,18.40
2019-01-11T19:52:21.078Z,20.60
2019-01-11T19:54:49.052Z,15.03
2019-01-11T19:57:16.910Z,20.20
2019-01-11T19:59:44.479Z,17.43
2019-01-11T20:02:11.988Z,19.03
2019-01-11T20:04:39.634Z,15.90
2019-01-11T20:07:07.400Z,17.17
2019-01-11T20:09:35.199Z,18.50
2019-01-11T20:12:02.811Z,22.33
2019-01-11T20:14:30.305Z,14.90
2019-01-11T20:16:57.844Z,20.90
2019-01-11T20:19:28.597Z,18.53
2019-01-11T20:21:56.370Z,19.50
2019-01-11T20:24:30.286Z,17.10
2019-01-11T20:27:01.641Z,17.20
2019-01-11T20:29:29.562Z,21.60
2019-01-11T20:31:57.927Z,17.27
2019-01-11T20:34:25.409Z,14.67
2019-01-11T20:37:02.477Z,17.77
2019-01-11T20:39:29.959Z,20.07
2019-01-11T20:41:57.482Z,18.63
2019-01-11T20:44:25.036Z,20.13
2019-01-11T20:46:52.616Z,18.13
2019-01-11T20:49:20.604Z,17.83
2019-01-11T20:51:48.650Z,21.63
2019-01-11T20:54:16.661Z,15.03
2019-01-11T20:56:44.160Z,18.33
2019-01-11T20:59:11.652Z,16.50
2019-01-11T21:01:39.508Z,13.80
2019-01-11T21:04:07.072Z,15.53
2019-01-11T21:06:34.760Z,15.83
2019-01-11T21:09:04.144Z,17.03
2019-01-11T21:11:34.997Z,14.50
2019-01-11T21:14:02.680Z,17.30
2019-01-11T21:16:32.887Z,14.00
2019-01-11T21:19:10.987Z,11.60
2019-01-11T21:21:38.546Z,14.50
2019-01-11T21:24:06.292Z,15.93
2019-01-11T21:26:33.857Z,15.47
2019-01-11T21:29:01.348Z,16.03
2019-01-11T21:31:29.401Z,14.10
2019-01-11T21:33:56.948Z,12.40
2019-01-11T21:36:24.891Z,13.63
2019-01-11T21:38:52.442Z,13.30
2019-01-11T21:41:19.904Z,13.13
2019-01-11T21:43:47.506Z,11.57
2019-01-11T21:46:15.033Z,14.47
2019-01-11T21:48:42.723Z,14.50
2019-01-11T21:51:10.535Z,12.73
2019-01-11T21:53:38.195Z,15.00
2019-01-11T21:56:05.753Z,14.87
2019-01-11T21:58:33.463Z,12.70
2019-01-11T22:01:00.941Z,11.40
2019-01-11T22:03:28.464Z,14.97
2019-01-11T22:05:55.992Z,12.40
2019-01-11T22:08:23.524Z,11.80
2019-01-11T22:10:50.999Z,11.30
2019-01-11T22:13:18.569Z,11.20
2019-01-11T22:15:48.476Z,13.70
2019-01-11T22:18:15.981Z,12.03
2019-01-11T22:20:44.011Z,11.50
2019-01-11T22:23:11.532Z,10.37
2019-01-11T22:25:39.047Z,11.60
2019-01-11T22:28:06.619Z,13.00
2019-01-11T22:30:34.333Z,12.73
2019-01-11T22:33:01.908Z,11.03
2019-01-11T22:35:29.402Z,11.67
2019-01-11T22:37:57.005Z,10.90
2019-01-11T22:40:24.469Z,10.63
2019-01-11T22:42:54.382Z,8.40
2019-01-11T22:45:21.863Z,11.10
2019-01-11T22:47:49.358Z,11.63
2019-01-11T22:50:17.296Z,11.53
2019-01-11T22:52:44.977Z,9.63
2019-01-11T22:55:13.177Z,11.40
2019-01-11T22:57:40.713Z,12.17
2019-01-11T23:00:47.399Z,14.90
2019-01-11T23:03:18.675Z,10.50
2019-01-11T23:05:46.417Z,13.00
2019-01-11T23:08:17.812Z,9.23
2019-01-11T23:11:45.585Z,10.20
2019-01-11T23:14:13.465Z,8.30
2019-01-11T23:17:07.661Z,9.33
2019-01-11T23:19:35.192Z,10.63
2019-01-11T23:22:03.412Z,9.63
2019-01-11T23:24:30.974Z,10.13
2019-01-11T23:26:58.799Z,9.17
2019-01-11T23:29:26.322Z,11.20
2019-01-11T23:31:56.028Z,10.30
2019-01-11T23:34:23.564Z,10.73
2019-01-11T23:36:51.013Z,9.57
2019-01-11T23:39:18.624Z,8.70
2019-01-11T23:41:46.146Z,13.90
2019-01-11T23:44:13.777Z,13.20
2019-01-11T23:46:41.337Z,10.30
2019-01-11T23:49:08.897Z,11.77
2019-01-11T23:51:36.427Z,11.10
2019-01-11T23:54:04.230Z,9.53
2019-01-11T23:56:31.853Z,8.93
2019-01-11T23:58:59.425Z,9.50
